Black, Texas
Current Conditions -  °F | °C
As of 4:55 PM on Tuesday 21 Oct 2014 (Local Time) from KCVN Reporting Station
Overcast Overcast  
Wind Chill: 72°   Ceiling: 5000
Heat Index: 72°   Visibility: 10mi
Dew Point: 46°   Wind: 13mph
Humidity: 41%   Direction: 160°SSE
Pressure: 30.09"   Gusts: NA
Location:  34.6538°N, 102.747°W
Report Text: KCVN 212155Z AUTO 16011KT 10SM BKN050 BKN070 OVC085 22/08 A3009 RMK AO1
Loading
Personal Weather Stations






























Interactive Weather Map
Tropical Storm Tracking
New forecast layout! Learn more

10-Day Weather Forecast

Advertisements
Track Severe Weather on mobile